Goodwell, OK (73939)

6:47 PM CST on February 26, 2017 (GMT -0600)
MUP320 | | Change Station
Active Advisory: Fire Weather Watch

Elev 3224 ft 36.63 °N, 101.57 °W | Updated 34 minutes ago

Partly Cloudy
Partly Cloudy
49.0 °F
Feels Like 45 °F
N
9.0
Wind Variable Wind from SSE
Gusts 12.0 mph

Today
High -- | Low -- °F
--% Chance of Precip.
Yesterday
High -- | Low -- °F
Precip. -- in
Pressure 29.81 in
Visibility 10.0 miles
Clouds Scattered Clouds 10000 ft
Windchill 45 °F
Dew Point Not available.
Humidity Not available.
Rainfall 0.00 in
Snow Depth Not available.
7:20 AM 6:38 PM
New Moon, 0% visible
METAR KGUY 262353Z AUTO 13008KT 10SM SCT100 11/M14 A2981 RMK AO2 SLP093 T01061144 10128 20100 55005 $
Pressure 29.81 in
Visibility 10.0 miles
Clouds Scattered Clouds 10000 ft
Windchill 45 °F
Dew Point Not available.
Humidity Not available.
Rainfall 0.00 in
Snow Depth Not available.
7:20 AM 6:38 PM
New Moon, 0% visible
METAR KGUY 262353Z AUTO 13008KT 10SM SCT100 11/M14 A2981 RMK AO2 SLP093 T01061144 10128 20100 55005 $

Get Your Daily Forecast Email!

Thanks for signing up!

Be on the lookout for a verification email in your inbox.

You'll start receiving the daily forecast at 8 AM.

×

10-Day Weather Forecast

Almanac

Astronomy

Feb. 26, 2017 Rise Set
Actual Time
Civil Twilight
Nautical Twilight
Astronomical Twilight
Moon
Length of Visible Light
Length of Day
Tomorrow will be .
, % of the Moon is Illuminated

Today's Extremes

State Highs State Lows

Community

WunderPhotos

Upload Photos

1,962,540 photos uploaded!

WunderBlog® & News

Nearby

Air Quality

  Air Quality AQ Index Pollutant
Not available.

Snow Depth

Station Depth Elevation

Earthquake Activity

City Distance Mag. Time & Date
Minimum magnitude displayed is 2.5.

Coastal Water Temperatures

Place Temperature

Stations

Nearby Weather Stations

Station Location Temp. Windchill Dew Point Humidity Wind Precip. Elev Updated Type
                   

Watches & Warnings

Fire Weather Watch
Issued: 5:10 PM CST Feb. 26, 2017 – National Weather Service

... Fire Weather Watch remains in effect from Tuesday morning
through Tuesday evening for strong winds and low relative
humidity for for all of the Oklahoma and Texas panhandles...

* affected area... in Oklahoma... Cimarron... Texas and Beaver. In
Texas... Hansford... Ochiltree... Lipscomb... Hutchinson...
Roberts... Hemphill... Carson... gray... Wheeler... Armstrong...
Donley and Collingsworth.

* 20 foot winds... west 30 to 40 mph with gusts up to 60 mph.

* Relative humidity... as low as 14 percent.

* Timing... elevated to critical fire weather conditions are
expected to begin around 11 am CST Tuesday morning and
expected to end around 7 PM CST Tuesday evening.

Precautionary/preparedness actions...

A Fire Weather Watch means that the potential for critical fire
weather conditions exists. Listen for later forecasts and
possible red flag warnings.



For more information from the National Weather Service visit...
www.Weather.Gov/Ama